• Join FlightAware (Why Join?)
  • Login
  • US Flag 
10:23AM EDT


 

Airport Tracker/Info


-or-


 

Live Flight TrackerFlight Track Log ✈ AWE2767 ✈ 11-Dec-2013 ✈ KCVG - KCLT

Flight Track Log - Related Links

Times and Time Zones

All times are in EST time to prevent confusion due to time zone crossing. See the AWE2767 flight status page for this flight to view local times or setup timezone preferences in your user account.

Time Position Orientation Groundspeed Altitude Reporting Facility
EST Latitude Longitude Course Direction KTS MPH feet Rate Location/Type
02:16PM 39.0333 -84.6667 180° South 170 196 1,900  Level Cincinnati TRACON
02:17PM 38.9667 -84.6667 180° South 211 243 4,000 2,400 Climbing Cincinnati TRACON
02:18PM 38.9000 -84.6500 169° South 278 320 6,800 2,640 Climbing Cincinnati TRACON
02:19PM 38.8342 -84.6300 167° South 271 312 9,600 2,400 Climbing Indianapolis Center
02:20PM 38.7408 -84.6006 166° South 308 354 12,000 2,280 Climbing Indianapolis Center
02:21PM 38.6497 -84.5711 166° South 336 387 14,400 2,400 Climbing Indianapolis Center
02:22PM 38.5461 -84.5367 165° South 352 405 17,000 2,280 Climbing Indianapolis Center
02:23PM 38.4489 -84.5097 168° South 356 410 19,200 1,920 Climbing Indianapolis Center
02:24PM 38.3533 -84.5003 176° South 345 397 21,000 1,680 Climbing Indianapolis Center
02:25PM 38.2522 -84.4942 177° South 361 415 22,700 1,920 Climbing Indianapolis Center
02:26PM 38.1339 -84.4850 177° South 365 420 25,000 1,740 Climbing Indianapolis Center
02:27PM 38.0300 -84.4775 177° South 371 427 26,300 1,380 Climbing Indianapolis Center
02:28PM 37.9222 -84.4533 170° South 393 452 27,900 1,380 Climbing Indianapolis Center
02:29PM 37.8083 -84.4119 164° South 422 486 29,200 1,080 Climbing Indianapolis Center
02:30PM 37.6958 -84.3672 163° South 427 491 30,200 840 Climbing Indianapolis Center
02:31PM 37.5606 -84.3131 162° South 436 502 31,000 360 Climbing Indianapolis Center
02:32PM 37.4400 -84.2369 153° Southeast 506 582 31,000  Level Indianapolis Center
02:33PM 37.3519 -84.0622 122° Southeast 587 676 31,000  Level Indianapolis Center
02:34PM 37.2686 -83.8800 120° Southeast 602 693 31,000  Level Indianapolis Center
02:35PM 37.1861 -83.7019 120° Southeast 592 681 31,000  Level Indianapolis Center
02:36PM 37.0903 -83.4975 120° Southeast 585 673 31,000  Level Indianapolis Center
02:37PM 37.0067 -83.3222 121° Southeast 585 673 31,000 -780 Level Indianapolis Center
02:38PM 36.9231 -83.1442 120° Southeast 595 685 29,500 -1,020 Descending Indianapolis Center
02:39PM 36.8464 -82.9831 121° Southeast 554 638 29,000 -300 Descending Indianapolis Center
02:41PM 36.7569 -82.7950 121° Southeast 555 639 29,000  Level Indianapolis Center
02:42PM 36.6783 -82.6308 121° Southeast 555 639 29,000  Level Indianapolis Center
02:43PM 36.5986 -82.4642 121° Southeast 559 643 29,000  Level Indianapolis Center
02:43PM 36.5539 -82.3744 122° Southeast 552 635 29,000 -1,320 Level Atlanta Center
02:44PM 36.4764 -82.2108 120° Southeast 547 629 27,000 -2,400 Descending Atlanta Center
02:45PM 36.3806 -82.0892 134° Southeast 526 605 24,200 -1,800 Descending Atlanta Center
02:46PM 36.2689 -82.0197 153° Southeast 468 539 23,500 -1,740 Descending Atlanta Center
02:47PM 36.1508 -81.9406 152° Southeast 448 516 20,800 -2,460 Descending Atlanta Center
02:48PM 36.0369 -81.8689 153° Southeast 448 516 18,600 -2,040 Descending Atlanta Center
02:49PM 35.9356 -81.8025 152° Southeast 442 509 16,800 -1,980 Descending Atlanta Center
02:50PM 35.8322 -81.7361 152° Southeast 423 487 14,700 -1,500 Descending Atlanta Center
02:51PM 35.7414 -81.6747 151° Southeast 403 464 13,800 -960 Descending Atlanta Center
02:51PM 35.7392 -81.6747 180° South 335 386 13,700 -1,800 Descending Atlanta Center
02:52PM 35.6908 -81.6456 154° Southeast 301 346 12,600 -1,620 Descending Atlanta Center
02:52PM 35.6675 -81.6283 149° Southeast 358 412 12,200 -1,560 Descending Atlanta Center
02:53PM 35.6211 -81.5989 153° Southeast 286 329 11,000 -1,200 Descending Atlanta Center
02:53PM 35.5975 -81.5767 143° Southeast 309 356 11,000  Level Atlanta Center
02:54PM 35.5589 -81.5167 128° Southeast 299 344 11,000 -240 Level Atlanta Center
02:54PM 35.5458 -81.4992 133° Southeast 294 338 10,800 -1,200 Descending Atlanta Center
02:55PM 35.5528 -81.4275 83° East 273 314 9,700 -1,320 Descending Atlanta Center
02:55PM 35.5567 -81.4119 73° East 245 282 9,500 -1,320 Descending Atlanta Center
02:56PM 35.6008 -81.3392 53° Northeast 233 268 8,200 -1,380 Descending Atlanta Center
02:57PM 35.6311 -81.2869 54° Northeast 258 297 7,100 -1,200 Descending Atlanta Center
02:57PM 35.6347 -81.2639 79° East 233 268 7,000 -120 Descending Atlanta Center
02:58PM 35.6247 -81.1953 100° East 259 298 7,000  Level Atlanta Center
02:58PM 35.6225 -81.1825 102° East 243 280 7,000  Level Atlanta Center
02:59PM 35.6103 -81.1064 101° East 258 297 7,000  Level Atlanta Center
02:59PM 35.6100 -81.0936 92° East 243 280 7,000 -540 Level Atlanta Center
03:00PM 35.5978 -81.0275 103° East 219 252 6,500 -600 Descending Atlanta Center
03:00PM 35.5975 -81.0172 92° East 243 280 6,400 -1,380 Descending Atlanta Center
03:01PM 35.5556 -80.9986 160° South 181 208 5,100 -720 Descending Atlanta Center
03:02PM 35.4950 -80.9981 180° South 180 207 5,000 -60 Descending Atlanta Center
03:03PM 35.4508 -80.9872 169° South 184 212 5,000 -300 Level Atlanta Center
03:04PM 35.3986 -80.9864 179° South 182 209 4,500 -840 Descending Atlanta Center
03:05PM 35.3506 -80.9831 177° South 177 204 3,400 -1,020 Descending Atlanta Center
03:06PM 35.3025 -80.9772 174° South 145 167 2,400 -840 Descending Atlanta Center
03:07PM 35.2647 -80.9736 176° South 132 152 1,700 -720 Descending Atlanta Center